Red Rock, Nevada
Current Conditions -  °F | °C
As of 11:15 PM on Friday 24 Oct 2014 (Local Time) from KRTS Reporting Station
Clear Clear  
Wind Chill: 54°   Ceiling: Unl
Heat Index: 54°   Visibility: 10mi
Dew Point: 23°   Wind: 7mph
Humidity: 30%   Direction: 10°N
Pressure: 30.01"   Gusts: NA
Location:  39.7378°N, 119.889°W
Report Text: KRTS 250615Z AUTO 01006KT 10SM CLR 12/M05 A3001 RMK AO2
Loading
Personal Weather Stations






























Interactive Weather Map
Tropical Storm Tracking
New forecast layout! Learn more

10-Day Weather Forecast

Advertisements
Track Severe Weather on mobile